sensor_id;sensor_type;location;lat;lon;timestamp;pressure;altitude;pressure_sealevel;temperature;humidity
23176;BME280;19910;42.652;23.332;2024-01-06T00:01:13;94448.28;;;6.11;100.00
23176;BME280;19910;42.652;23.332;2024-01-06T00:03:42;94436.59;;;6.15;99.73
23176;BME280;19910;42.652;23.332;2024-01-06T00:06:11;94456.88;;;5.99;100.00
23176;BME280;19910;42.652;23.332;2024-01-06T00:08:38;94442.47;;;6.17;99.82
23176;BME280;19910;42.652;23.332;2024-01-06T00:11:05;94429.63;;;5.92;100.00
23176;BME280;19910;42.652;23.332;2024-01-06T00:13:31;94423.44;;;6.27;100.00
23176;BME280;19910;42.652;23.332;2024-01-06T00:15:58;94415.47;;;6.22;100.00
23176;BME280;19910;42.652;23.332;2024-01-06T00:18:27;94442.31;;;6.36;100.00
23176;BME280;19910;42.652;23.332;2024-01-06T00:20:54;94451.19;;;6.36;100.00
23176;BME280;19910;42.652;23.332;2024-01-06T00:23:21;94445.69;;;6.41;100.00
23176;BME280;19910;42.652;23.332;2024-01-06T00:25:48;94460.72;;;6.42;100.00
23176;BME280;19910;42.652;23.332;2024-01-06T00:28:15;94440.41;;;6.36;99.74
23176;BME280;19910;42.652;23.332;2024-01-06T00:30:42;94439.44;;;6.10;100.00
23176;BME280;19910;42.652;23.332;2024-01-06T00:33:09;94463.09;;;6.22;100.00
23176;BME280;19910;42.652;23.332;2024-01-06T00:35:40;94453.13;;;6.22;100.00
23176;BME280;19910;42.652;23.332;2024-01-06T00:38:07;94443.84;;;6.28;100.00
23176;BME280;19910;42.652;23.332;2024-01-06T00:40:34;94444.03;;;5.96;100.00
23176;BME280;19910;42.652;23.332;2024-01-06T00:43:01;94452.78;;;5.88;100.00
23176;BME280;19910;42.652;23.332;2024-01-06T00:45:27;94451.63;;;6.16;100.00
23176;BME280;19910;42.652;23.332;2024-01-06T00:47:56;94448.06;;;6.21;100.00
23176;BME280;19910;42.652;23.332;2024-01-06T00:50:23;94439.19;;;6.20;100.00
23176;BME280;19910;42.652;23.332;2024-01-06T00:52:53;94423.84;;;5.98;100.00
23176;BME280;19910;42.652;23.332;2024-01-06T00:55:21;94443.81;;;6.06;100.00
23176;BME280;19910;42.652;23.332;2024-01-06T00:57:48;94439.44;;;6.10;100.00
23176;BME280;19910;42.652;23.332;2024-01-06T01:00:15;94440.59;;;6.18;100.00
23176;BME280;19910;42.652;23.332;2024-01-06T01:02:44;94433.22;;;6.23;100.00
23176;BME280;19910;42.652;23.332;2024-01-06T01:05:11;94435.41;;;6.21;100.00
23176;BME280;19910;42.652;23.332;2024-01-06T01:07:38;94438.53;;;6.37;100.00
23176;BME280;19910;42.652;23.332;2024-01-06T01:10:07;94440.06;;;6.52;100.00
23176;BME280;19910;42.652;23.332;2024-01-06T01:12:35;94435.78;;;6.51;100.00
23176;BME280;19910;42.652;23.332;2024-01-06T01:15:02;94432.09;;;6.47;100.00
23176;BME280;19910;42.652;23.332;2024-01-06T01:17:30;94423.91;;;6.52;100.00
23176;BME280;19910;42.652;23.332;2024-01-06T01:19:58;94425.00;;;6.51;100.00
23176;BME280;19910;42.652;23.332;2024-01-06T01:22:24;94420.00;;;6.35;100.00
23176;BME280;19910;42.652;23.332;2024-01-06T01:24:52;94431.41;;;6.19;100.00
23176;BME280;19910;42.652;23.332;2024-01-06T01:27:20;94430.41;;;6.28;100.00
23176;BME280;19910;42.652;23.332;2024-01-06T01:29:49;94422.69;;;6.13;99.12
23176;BME280;19910;42.652;23.332;2024-01-06T01:32:20;94412.94;;;6.03;99.74
23176;BME280;19910;42.652;23.332;2024-01-06T01:34:47;94419.63;;;6.06;100.00
23176;BME280;19910;42.652;23.332;2024-01-06T01:37:16;94417.97;;;5.96;100.00
23176;BME280;19910;42.652;23.332;2024-01-06T01:39:43;94409.69;;;5.43;100.00
23176;BME280;19910;42.652;23.332;2024-01-06T01:42:12;94408.50;;;5.08;100.00
23176;BME280;19910;42.652;23.332;2024-01-06T01:44:40;94411.56;;;5.56;100.00
23176;BME280;19910;42.652;23.332;2024-01-06T01:47:07;94399.28;;;5.64;100.00
23176;BME280;19910;42.652;23.332;2024-01-06T01:49:35;94404.31;;;5.43;100.00
23176;BME280;19910;42.652;23.332;2024-01-06T01:52:02;94404.47;;;5.60;100.00
23176;BME280;19910;42.652;23.332;2024-01-06T01:54:30;94390.09;;;5.79;100.00
23176;BME280;19910;42.652;23.332;2024-01-06T01:56:59;94400.66;;;5.89;100.00
23176;BME280;19910;42.652;23.332;2024-01-06T01:59:26;94382.31;;;5.91;100.00
23176;BME280;19910;42.652;23.332;2024-01-06T02:01:55;94394.06;;;5.81;100.00
23176;BME280;19910;42.652;23.332;2024-01-06T02:04:22;94395.31;;;5.61;100.00
23176;BME280;19910;42.652;23.332;2024-01-06T02:06:52;94386.06;;;5.67;100.00
23176;BME280;19910;42.652;23.332;2024-01-06T02:09:22;94389.38;;;5.37;100.00
23176;BME280;19910;42.652;23.332;2024-01-06T02:11:52;94388.56;;;5.50;100.00
23176;BME280;19910;42.652;23.332;2024-01-06T02:14:19;94365.72;;;5.39;100.00
23176;BME280;19910;42.652;23.332;2024-01-06T02:16:46;94357.97;;;5.24;100.00
23176;BME280;19910;42.652;23.332;2024-01-06T02:19:16;94361.72;;;5.50;100.00
23176;BME280;19910;42.652;23.332;2024-01-06T02:21:44;94373.66;;;5.44;100.00
23176;BME280;19910;42.652;23.332;2024-01-06T02:24:12;94356.72;;;5.57;100.00
23176;BME280;19910;42.652;23.332;2024-01-06T02:26:39;94357.84;;;5.79;100.00
23176;BME280;19910;42.652;23.332;2024-01-06T02:29:06;94359.13;;;5.81;99.84
23176;BME280;19910;42.652;23.332;2024-01-06T02:31:39;94352.06;;;5.85;100.00
23176;BME280;19910;42.652;23.332;2024-01-06T02:34:09;94345.50;;;5.91;100.00
23176;BME280;19910;42.652;23.332;2024-01-06T02:36:36;94336.94;;;5.76;100.00
23176;BME280;19910;42.652;23.332;2024-01-06T02:39:03;94343.69;;;5.87;100.00
23176;BME280;19910;42.652;23.332;2024-01-06T02:41:31;94339.69;;;5.98;100.00
23176;BME280;19910;42.652;23.332;2024-01-06T02:44:00;94338.09;;;5.97;100.00
23176;BME280;19910;42.652;23.332;2024-01-06T02:46:28;94318.25;;;6.06;100.00
23176;BME280;19910;42.652;23.332;2024-01-06T02:48:56;94332.53;;;6.16;100.00
23176;BME280;19910;42.652;23.332;2024-01-06T02:51:23;94337.34;;;5.83;100.00
23176;BME280;19910;42.652;23.332;2024-01-06T02:53:52;94333.03;;;5.59;100.00
23176;BME280;19910;42.652;23.332;2024-01-06T02:56:19;94328.50;;;5.46;100.00
23176;BME280;19910;42.652;23.332;2024-01-06T02:58:47;94322.41;;;5.77;100.00
23176;BME280;19910;42.652;23.332;2024-01-06T03:01:17;94316.44;;;5.57;100.00
23176;BME280;19910;42.652;23.332;2024-01-06T03:03:48;94314.94;;;5.51;100.00
23176;BME280;19910;42.652;23.332;2024-01-06T03:06:15;94314.88;;;5.43;100.00
23176;BME280;19910;42.652;23.332;2024-01-06T03:08:42;94324.66;;;5.61;100.00
23176;BME280;19910;42.652;23.332;2024-01-06T03:11:10;94306.19;;;5.59;98.50
23176;BME280;19910;42.652;23.332;2024-01-06T03:13:37;94322.66;;;5.66;98.63
23176;BME280;19910;42.652;23.332;2024-01-06T03:16:07;94317.50;;;5.92;99.12
23176;BME280;19910;42.652;23.332;2024-01-06T03:18:34;94313.41;;;5.95;97.52
23176;BME280;19910;42.652;23.332;2024-01-06T03:21:01;94314.09;;;6.00;96.31
23176;BME280;19910;42.652;23.332;2024-01-06T03:23:28;94293.25;;;5.84;95.72
23176;BME280;19910;42.652;23.332;2024-01-06T03:25:57;94297.28;;;5.95;96.29
23176;BME280;19910;42.652;23.332;2024-01-06T03:28:24;94299.28;;;5.89;95.09
23176;BME280;19910;42.652;23.332;2024-01-06T03:30:54;94305.47;;;5.90;95.56
23176;BME280;19910;42.652;23.332;2024-01-06T03:33:22;94304.19;;;5.87;94.93
23176;BME280;19910;42.652;23.332;2024-01-06T03:35:49;94307.44;;;5.98;96.30
23176;BME280;19910;42.652;23.332;2024-01-06T03:38:16;94303.41;;;6.09;96.81
23176;BME280;19910;42.652;23.332;2024-01-06T03:40:42;94297.28;;;5.95;95.25
23176;BME280;19910;42.652;23.332;2024-01-06T03:43:09;94290.16;;;5.77;95.49
23176;BME280;19910;42.652;23.332;2024-01-06T03:45:36;94295.19;;;5.69;96.54
23176;BME280;19910;42.652;23.332;2024-01-06T03:48:04;94298.63;;;5.48;98.27
23176;BME280;19910;42.652;23.332;2024-01-06T03:50:36;94292.91;;;5.63;98.06
23176;BME280;19910;42.652;23.332;2024-01-06T03:53:03;94281.16;;;5.36;99.54
23176;BME280;19910;42.652;23.332;2024-01-06T03:55:30;94284.84;;;5.63;99.95
23176;BME280;19910;42.652;23.332;2024-01-06T03:58:00;94287.00;;;5.75;99.95
23176;BME280;19910;42.652;23.332;2024-01-06T04:00:28;94294.03;;;5.84;99.92
23176;BME280;19910;42.652;23.332;2024-01-06T04:02:55;94302.50;;;5.78;98.58
23176;BME280;19910;42.652;23.332;2024-01-06T04:05:22;94288.63;;;5.62;97.93
23176;BME280;19910;42.652;23.332;2024-01-06T04:07:51;94289.16;;;5.28;98.60
23176;BME280;19910;42.652;23.332;2024-01-06T04:10:21;94293.47;;;5.51;98.47
23176;BME280;19910;42.652;23.332;2024-01-06T04:12:48;94295.28;;;5.42;98.94
23176;BME280;19910;42.652;23.332;2024-01-06T04:15:18;94294.94;;;5.57;99.39
23176;BME280;19910;42.652;23.332;2024-01-06T04:17:52;94285.09;;;5.53;98.32
23176;BME280;19910;42.652;23.332;2024-01-06T04:20:19;94296.94;;;5.74;99.75
23176;BME280;19910;42.652;23.332;2024-01-06T04:22:46;94297.03;;;5.47;99.27
23176;BME280;19910;42.652;23.332;2024-01-06T04:25:15;94287.09;;;5.47;99.45
23176;BME280;19910;42.652;23.332;2024-01-06T04:27:42;94284.97;;;5.22;99.37
23176;BME280;19910;42.652;23.332;2024-01-06T04:30:11;94286.06;;;5.21;100.00
23176;BME280;19910;42.652;23.332;2024-01-06T04:32:38;94304.81;;;5.48;100.00
23176;BME280;19910;42.652;23.332;2024-01-06T04:35:06;94304.44;;;5.41;99.07
23176;BME280;19910;42.652;23.332;2024-01-06T04:37:33;94294.34;;;5.11;99.76
23176;BME280;19910;42.652;23.332;2024-01-06T04:40:00;94311.97;;;5.17;100.00
23176;BME280;19910;42.652;23.332;2024-01-06T04:42:28;94329.44;;;5.28;100.00
23176;BME280;19910;42.652;23.332;2024-01-06T04:44:55;94318.00;;;5.22;100.00
23176;BME280;19910;42.652;23.332;2024-01-06T04:47:21;94296.56;;;4.95;100.00
23176;BME280;19910;42.652;23.332;2024-01-06T04:49:48;94309.00;;;5.05;100.00
23176;BME280;19910;42.652;23.332;2024-01-06T04:52:15;94329.66;;;5.18;100.00
23176;BME280;19910;42.652;23.332;2024-01-06T04:54:42;94308.91;;;4.82;100.00
23176;BME280;19910;42.652;23.332;2024-01-06T04:57:09;94330.56;;;4.99;100.00
23176;BME280;19910;42.652;23.332;2024-01-06T04:59:37;94334.44;;;4.93;100.00
23176;BME280;19910;42.652;23.332;2024-01-06T05:02:04;94310.50;;;4.70;100.00
23176;BME280;19910;42.652;23.332;2024-01-06T05:04:31;94315.25;;;4.59;100.00
23176;BME280;19910;42.652;23.332;2024-01-06T05:06:58;94319.25;;;4.75;100.00
23176;BME280;19910;42.652;23.332;2024-01-06T05:09:25;94295.28;;;4.65;100.00
23176;BME280;19910;42.652;23.332;2024-01-06T05:11:52;94293.41;;;4.65;100.00
23176;BME280;19910;42.652;23.332;2024-01-06T05:14:19;94304.75;;;4.76;100.00
23176;BME280;19910;42.652;23.332;2024-01-06T05:16:47;94302.56;;;4.78;100.00
23176;BME280;19910;42.652;23.332;2024-01-06T05:19:14;94293.00;;;4.45;100.00
23176;BME280;19910;42.652;23.332;2024-01-06T05:21:44;94293.50;;;4.60;100.00
23176;BME280;19910;42.652;23.332;2024-01-06T05:24:11;94297.59;;;4.58;100.00
23176;BME280;19910;42.652;23.332;2024-01-06T05:26:38;94290.91;;;4.42;100.00
23176;BME280;19910;42.652;23.332;2024-01-06T05:29:05;94285.69;;;4.64;100.00
23176;BME280;19910;42.652;23.332;2024-01-06T05:31:32;94284.16;;;4.58;100.00
23176;BME280;19910;42.652;23.332;2024-01-06T05:34:00;94275.31;;;4.71;100.00
23176;BME280;19910;42.652;23.332;2024-01-06T05:36:27;94263.22;;;4.74;100.00
23176;BME280;19910;42.652;23.332;2024-01-06T05:38:54;94277.13;;;4.76;100.00
23176;BME280;19910;42.652;23.332;2024-01-06T05:41:21;94264.22;;;4.64;100.00
23176;BME280;19910;42.652;23.332;2024-01-06T05:43:47;94261.13;;;4.57;100.00
23176;BME280;19910;42.652;23.332;2024-01-06T05:46:20;94275.13;;;4.81;100.00
23176;BME280;19910;42.652;23.332;2024-01-06T05:48:47;94274.03;;;4.82;100.00
23176;BME280;19910;42.652;23.332;2024-01-06T05:51:15;94262.44;;;4.46;100.00
23176;BME280;19910;42.652;23.332;2024-01-06T05:53:42;94277.31;;;4.65;100.00
23176;BME280;19910;42.652;23.332;2024-01-06T05:56:09;94263.81;;;4.57;100.00
23176;BME280;19910;42.652;23.332;2024-01-06T05:58:36;94265.00;;;4.23;100.00
23176;BME280;19910;42.652;23.332;2024-01-06T06:01:03;94275.91;;;4.41;100.00
23176;BME280;19910;42.652;23.332;2024-01-06T06:03:30;94258.72;;;4.28;100.00
23176;BME280;19910;42.652;23.332;2024-01-06T06:05:57;94273.16;;;4.73;100.00
23176;BME280;19910;42.652;23.332;2024-01-06T06:08:25;94268.59;;;4.60;100.00
23176;BME280;19910;42.652;23.332;2024-01-06T06:10:52;94261.63;;;4.59;100.00
23176;BME280;19910;42.652;23.332;2024-01-06T06:13:27;94257.56;;;4.61;100.00
23176;BME280;19910;42.652;23.332;2024-01-06T06:15:54;94262.50;;;4.68;100.00
23176;BME280;19910;42.652;23.332;2024-01-06T06:18:21;94260.81;;;4.86;100.00
23176;BME280;19910;42.652;23.332;2024-01-06T06:20:48;94256.53;;;4.71;100.00
23176;BME280;19910;42.652;23.332;2024-01-06T06:23:15;94252.88;;;4.53;100.00
23176;BME280;19910;42.652;23.332;2024-01-06T06:25:43;94271.75;;;4.76;100.00
23176;BME280;19910;42.652;23.332;2024-01-06T06:28:09;94270.47;;;4.59;100.00
23176;BME280;19910;42.652;23.332;2024-01-06T06:30:36;94275.41;;;4.66;100.00
23176;BME280;19910;42.652;23.332;2024-01-06T06:33:04;94275.53;;;4.47;100.00
23176;BME280;19910;42.652;23.332;2024-01-06T06:35:30;94282.06;;;4.55;100.00
23176;BME280;19910;42.652;23.332;2024-01-06T06:37:57;94270.97;;;4.48;100.00
23176;BME280;19910;42.652;23.332;2024-01-06T06:40:24;94269.97;;;4.71;100.00
23176;BME280;19910;42.652;23.332;2024-01-06T06:42:52;94285.19;;;4.62;100.00
23176;BME280;19910;42.652;23.332;2024-01-06T06:45:19;94281.69;;;4.75;100.00
23176;BME280;19910;42.652;23.332;2024-01-06T06:47:48;94288.13;;;5.02;100.00
23176;BME280;19910;42.652;23.332;2024-01-06T06:50:15;94274.13;;;5.27;100.00
23176;BME280;19910;42.652;23.332;2024-01-06T06:52:42;94279.16;;;4.92;100.00
23176;BME280;19910;42.652;23.332;2024-01-06T06:55:08;94291.41;;;4.98;100.00
23176;BME280;19910;42.652;23.332;2024-01-06T06:57:35;94269.72;;;4.95;100.00
23176;BME280;19910;42.652;23.332;2024-01-06T07:00:04;94274.78;;;4.96;100.00
23176;BME280;19910;42.652;23.332;2024-01-06T07:02:32;94288.63;;;5.04;100.00
23176;BME280;19910;42.652;23.332;2024-01-06T07:04:59;94275.03;;;5.22;100.00
23176;BME280;19910;42.652;23.332;2024-01-06T07:07:26;94271.69;;;5.17;100.00
23176;BME280;19910;42.652;23.332;2024-01-06T07:09:53;94279.16;;;5.42;100.00
23176;BME280;19910;42.652;23.332;2024-01-06T07:12:20;94277.84;;;7.17;100.00
23176;BME280;19910;42.652;23.332;2024-01-06T07:14:46;94254.50;;;6.77;100.00
23176;BME280;19910;42.652;23.332;2024-01-06T07:17:14;94271.78;;;6.46;100.00
23176;BME280;19910;42.652;23.332;2024-01-06T07:19:41;94265.88;;;6.04;100.00
23176;BME280;19910;42.652;23.332;2024-01-06T07:22:08;94271.25;;;6.04;100.00
23176;BME280;19910;42.652;23.332;2024-01-06T07:24:35;94271.47;;;6.47;99.99
23176;BME280;19910;42.652;23.332;2024-01-06T07:27:03;94259.31;;;6.58;97.38
23176;BME280;19910;42.652;23.332;2024-01-06T07:29:30;94260.06;;;6.81;96.42
23176;BME280;19910;42.652;23.332;2024-01-06T07:31:56;94251.75;;;6.29;94.80
23176;BME280;19910;42.652;23.332;2024-01-06T07:34:25;94260.88;;;6.51;96.18
23176;BME280;19910;42.652;23.332;2024-01-06T07:36:52;94250.56;;;6.44;96.74
23176;BME280;19910;42.652;23.332;2024-01-06T07:39:19;94254.19;;;6.79;96.38
23176;BME280;19910;42.652;23.332;2024-01-06T07:41:45;94261.66;;;6.99;94.53
23176;BME280;19910;42.652;23.332;2024-01-06T07:44:12;94257.16;;;6.69;94.23
23176;BME280;19910;42.652;23.332;2024-01-06T07:46:41;94250.59;;;7.09;93.48
23176;BME280;19910;42.652;23.332;2024-01-06T07:49:08;94256.09;;;6.87;93.32
23176;BME280;19910;42.652;23.332;2024-01-06T07:51:36;94259.63;;;6.96;93.78
23176;BME280;19910;42.652;23.332;2024-01-06T07:54:03;94253.31;;;7.18;91.88
23176;BME280;19910;42.652;23.332;2024-01-06T07:56:31;94247.91;;;7.27;92.33
23176;BME280;19910;42.652;23.332;2024-01-06T07:58:58;94250.31;;;7.54;91.07
23176;BME280;19910;42.652;23.332;2024-01-06T08:01:25;94255.34;;;7.12;91.25
23176;BME280;19910;42.652;23.332;2024-01-06T08:03:52;94265.53;;;7.50;91.33
23176;BME280;19910;42.652;23.332;2024-01-06T08:06:19;94255.38;;;7.30;89.31
23176;BME280;19910;42.652;23.332;2024-01-06T08:08:47;94259.34;;;7.58;90.84
23176;BME280;19910;42.652;23.332;2024-01-06T08:11:14;94256.34;;;7.34;90.38
23176;BME280;19910;42.652;23.332;2024-01-06T08:13:41;94253.94;;;7.06;91.54
23176;BME280;19910;42.652;23.332;2024-01-06T08:16:08;94264.25;;;7.22;91.31
23176;BME280;19910;42.652;23.332;2024-01-06T08:18:35;94250.13;;;7.25;91.92
23176;BME280;19910;42.652;23.332;2024-01-06T08:21:02;94243.66;;;7.43;92.73
23176;BME280;19910;42.652;23.332;2024-01-06T08:23:29;94242.19;;;7.80;90.43
23176;BME280;19910;42.652;23.332;2024-01-06T08:25:57;94242.53;;;7.09;90.86
23176;BME280;19910;42.652;23.332;2024-01-06T08:28:24;94270.78;;;7.38;92.03
23176;BME280;19910;42.652;23.332;2024-01-06T08:30:51;94247.16;;;7.35;91.99
23176;BME280;19910;42.652;23.332;2024-01-06T08:33:18;94233.03;;;7.21;91.94
23176;BME280;19910;42.652;23.332;2024-01-06T08:35:45;94239.53;;;7.54;93.15
23176;BME280;19910;42.652;23.332;2024-01-06T08:38:13;94250.44;;;7.92;91.01
23176;BME280;19910;42.652;23.332;2024-01-06T08:40:40;94222.72;;;7.57;89.50
23176;BME280;19910;42.652;23.332;2024-01-06T08:43:08;94248.09;;;7.73;90.19
23176;BME280;19910;42.652;23.332;2024-01-06T08:45:35;94241.84;;;7.99;88.36
23176;BME280;19910;42.652;23.332;2024-01-06T08:48:02;94236.22;;;8.38;88.90
23176;BME280;19910;42.652;23.332;2024-01-06T08:50:29;94229.56;;;8.27;85.87
23176;BME280;19910;42.652;23.332;2024-01-06T08:52:56;94248.06;;;7.91;88.26
23176;BME280;19910;42.652;23.332;2024-01-06T08:55:23;94241.03;;;8.07;87.17
23176;BME280;19910;42.652;23.332;2024-01-06T08:57:50;94230.47;;;7.76;87.69
23176;BME280;19910;42.652;23.332;2024-01-06T09:00:19;94240.00;;;7.73;87.48
23176;BME280;19910;42.652;23.332;2024-01-06T09:02:46;94244.38;;;8.12;86.62
23176;BME280;19910;42.652;23.332;2024-01-06T09:05:15;94208.81;;;8.19;84.56
23176;BME280;19910;42.652;23.332;2024-01-06T09:07:42;94215.66;;;8.08;85.89
23176;BME280;19910;42.652;23.332;2024-01-06T09:10:14;94239.72;;;8.39;85.65
23176;BME280;19910;42.652;23.332;2024-01-06T09:12:41;94214.50;;;8.26;84.29
23176;BME280;19910;42.652;23.332;2024-01-06T09:15:08;94199.13;;;8.18;85.46
23176;BME280;19910;42.652;23.332;2024-01-06T09:17:37;94205.34;;;8.10;85.07
23176;BME280;19910;42.652;23.332;2024-01-06T09:20:05;94199.56;;;8.37;85.18
23176;BME280;19910;42.652;23.332;2024-01-06T09:22:31;94208.41;;;8.76;83.58
23176;BME280;19910;42.652;23.332;2024-01-06T09:24:58;94192.44;;;8.62;82.58
23176;BME280;19910;42.652;23.332;2024-01-06T09:27:25;94183.47;;;8.49;83.48
23176;BME280;19910;42.652;23.332;2024-01-06T09:29:52;94187.91;;;8.54;83.87
23176;BME280;19910;42.652;23.332;2024-01-06T09:32:19;94182.44;;;8.63;83.62
23176;BME280;19910;42.652;23.332;2024-01-06T09:34:49;94166.03;;;8.47;84.31
23176;BME280;19910;42.652;23.332;2024-01-06T09:37:16;94182.34;;;8.80;84.66
23176;BME280;19910;42.652;23.332;2024-01-06T09:39:43;94164.41;;;8.54;83.66
23176;BME280;19910;42.652;23.332;2024-01-06T09:42:10;94175.25;;;8.96;83.63
23176;BME280;19910;42.652;23.332;2024-01-06T09:44:37;94165.19;;;9.26;83.54
23176;BME280;19910;42.652;23.332;2024-01-06T09:47:04;94155.47;;;9.46;80.76
23176;BME280;19910;42.652;23.332;2024-01-06T09:49:32;94171.06;;;9.82;79.88
23176;BME280;19910;42.652;23.332;2024-01-06T09:52:04;94141.78;;;9.30;80.42
23176;BME280;19910;42.652;23.332;2024-01-06T09:54:37;94115.19;;;8.99;82.06
23176;BME280;19910;42.652;23.332;2024-01-06T09:57:04;94161.56;;;9.22;82.38
23176;BME280;19910;42.652;23.332;2024-01-06T09:59:33;94155.75;;;9.53;81.70
23176;BME280;19910;42.652;23.332;2024-01-06T10:02:04;94125.66;;;9.54;80.80
23176;BME280;19910;42.652;23.332;2024-01-06T10:04:31;94147.25;;;9.75;80.96
23176;BME280;19910;42.652;23.332;2024-01-06T10:06:58;94141.19;;;9.90;79.04
23176;BME280;19910;42.652;23.332;2024-01-06T10:09:31;94114.66;;;9.72;78.68
23176;BME280;19910;42.652;23.332;2024-01-06T10:11:58;94110.69;;;9.57;78.41
23176;BME280;19910;42.652;23.332;2024-01-06T10:14:25;94120.47;;;9.94;79.69
23176;BME280;19910;42.652;23.332;2024-01-06T10:16:52;94098.06;;;9.61;78.12
23176;BME280;19910;42.652;23.332;2024-01-06T10:19:19;94079.19;;;9.28;79.81
23176;BME280;19910;42.652;23.332;2024-01-06T10:21:46;94123.78;;;9.67;80.91
23176;BME280;19910;42.652;23.332;2024-01-06T10:24:17;94089.13;;;9.81;78.98
23176;BME280;19910;42.652;23.332;2024-01-06T10:26:46;94091.81;;;9.81;80.12
23176;BME280;19910;42.652;23.332;2024-01-06T10:29:13;94107.16;;;10.02;78.11
23176;BME280;19910;42.652;23.332;2024-01-06T10:31:41;94090.09;;;10.46;77.27
23176;BME280;19910;42.652;23.332;2024-01-06T10:34:07;94086.25;;;10.23;76.77
23176;BME280;19910;42.652;23.332;2024-01-06T10:36:35;94098.22;;;10.34;76.30
23176;BME280;19910;42.652;23.332;2024-01-06T10:39:03;94081.91;;;9.40;78.69
23176;BME280;19910;42.652;23.332;2024-01-06T10:41:30;94074.38;;;9.46;79.36
23176;BME280;19910;42.652;23.332;2024-01-06T10:44:00;94095.88;;;9.99;78.83
23176;BME280;19910;42.652;23.332;2024-01-06T10:46:29;94062.00;;;9.57;78.85
23176;BME280;19910;42.652;23.332;2024-01-06T10:48:58;94058.53;;;9.56;79.29
23176;BME280;19910;42.652;23.332;2024-01-06T10:51:29;94070.19;;;9.81;78.75
23176;BME280;19910;42.652;23.332;2024-01-06T10:53:57;94067.91;;;9.71;77.89
23176;BME280;19910;42.652;23.332;2024-01-06T10:56:27;94071.97;;;9.65;79.11
23176;BME280;19910;42.652;23.332;2024-01-06T10:58:56;94064.97;;;9.76;78.00
23176;BME280;19910;42.652;23.332;2024-01-06T11:01:24;94045.13;;;9.72;78.17
23176;BME280;19910;42.652;23.332;2024-01-06T11:03:52;94038.09;;;9.47;79.34
23176;BME280;19910;42.652;23.332;2024-01-06T11:06:20;94049.88;;;9.75;79.26
23176;BME280;19910;42.652;23.332;2024-01-06T11:08:51;94027.28;;;9.47;80.06
23176;BME280;19910;42.652;23.332;2024-01-06T11:11:20;94042.22;;;9.77;80.92
23176;BME280;19910;42.652;23.332;2024-01-06T11:13:49;94030.50;;;9.85;79.39
23176;BME280;19910;42.652;23.332;2024-01-06T11:16:37;94020.78;;;9.60;81.31
23176;BME280;19910;42.652;23.332;2024-01-06T11:19:43;94035.25;;;10.13;79.75
23176;BME280;19910;42.652;23.332;2024-01-06T11:22:28;94018.66;;;10.51;77.17
23176;BME280;19910;42.652;23.332;2024-01-06T11:25:04;94031.44;;;10.38;76.00
23176;BME280;19910;42.652;23.332;2024-01-06T11:27:33;94017.66;;;10.31;74.48
23176;BME280;19910;42.652;23.332;2024-01-06T11:30:02;94007.06;;;10.38;75.66
23176;BME280;19910;42.652;23.332;2024-01-06T11:32:33;94008.56;;;10.76;75.28
23176;BME280;19910;42.652;23.332;2024-01-06T11:35:06;93999.56;;;10.59;73.74
23176;BME280;19910;42.652;23.332;2024-01-06T11:37:43;94004.16;;;10.99;73.08
23176;BME280;19910;42.652;23.332;2024-01-06T11:40:24;93985.66;;;11.01;72.96
23176;BME280;19910;42.652;23.332;2024-01-06T11:42:57;93969.31;;;11.13;70.37
23176;BME280;19910;42.652;23.332;2024-01-06T11:45:25;93955.34;;;11.27;71.01
23176;BME280;19910;42.652;23.332;2024-01-06T11:47:55;93955.78;;;11.13;71.39
23176;BME280;19910;42.652;23.332;2024-01-06T11:50:24;93957.44;;;11.18;69.57
23176;BME280;19910;42.652;23.332;2024-01-06T11:52:52;93939.44;;;11.25;69.46
23176;BME280;19910;42.652;23.332;2024-01-06T11:55:20;93932.13;;;10.98;69.82
23176;BME280;19910;42.652;23.332;2024-01-06T11:57:47;93935.03;;;11.21;69.45
23176;BME280;19910;42.652;23.332;2024-01-06T12:00:16;93932.34;;;11.36;68.18
23176;BME280;19910;42.652;23.332;2024-01-06T12:02:43;93924.28;;;10.93;69.52
23176;BME280;19910;42.652;23.332;2024-01-06T12:05:17;93925.13;;;10.97;69.99
23176;BME280;19910;42.652;23.332;2024-01-06T12:07:53;93912.44;;;11.45;69.22
23176;BME280;19910;42.652;23.332;2024-01-06T12:10:21;93914.78;;;11.30;69.21
23176;BME280;19910;42.652;23.332;2024-01-06T12:12:58;93910.06;;;10.84;70.34
23176;BME280;19910;42.652;23.332;2024-01-06T12:15:29;93884.19;;;10.71;71.54
23176;BME280;19910;42.652;23.332;2024-01-06T12:17:58;93887.16;;;10.65;71.32
23176;BME280;19910;42.652;23.332;2024-01-06T12:20:27;93884.88;;;10.67;70.97
23176;BME280;19910;42.652;23.332;2024-01-06T12:22:56;93897.38;;;10.44;71.87
23176;BME280;19910;42.652;23.332;2024-01-06T12:25:26;93911.72;;;10.73;71.62
23176;BME280;19910;42.652;23.332;2024-01-06T12:27:54;93922.13;;;11.14;71.42
23176;BME280;19910;42.652;23.332;2024-01-06T12:30:22;93926.06;;;11.32;70.01
23176;BME280;19910;42.652;23.332;2024-01-06T12:32:50;93915.28;;;11.36;70.04
23176;BME280;19910;42.652;23.332;2024-01-06T12:35:20;93898.41;;;11.11;70.47
23176;BME280;19910;42.652;23.332;2024-01-06T12:37:48;93916.44;;;11.19;70.24
23176;BME280;19910;42.652;23.332;2024-01-06T12:40:18;93921.44;;;11.17;71.70
23176;BME280;19910;42.652;23.332;2024-01-06T12:42:48;93919.28;;;10.51;72.21
23176;BME280;19910;42.652;23.332;2024-01-06T12:45:15;93920.81;;;10.52;71.67
23176;BME280;19910;42.652;23.332;2024-01-06T12:47:42;93903.69;;;10.48;73.82
23176;BME280;19910;42.652;23.332;2024-01-06T12:50:09;93880.47;;;10.47;72.78
23176;BME280;19910;42.652;23.332;2024-01-06T12:52:37;93892.25;;;10.27;73.27
23176;BME280;19910;42.652;23.332;2024-01-06T12:55:07;93896.59;;;10.44;73.82
23176;BME280;19910;42.652;23.332;2024-01-06T12:57:34;93891.19;;;10.72;73.30
23176;BME280;19910;42.652;23.332;2024-01-06T13:00:00;93877.06;;;10.94;72.40